アピア の空港の天気 - METARとTAF

ファレオロ国際空港(サモア) ( NSFA / APW ) - サモア アピア
飛行場実況気象(Metar)
観測時間08/11 20:00 WSST (08/11 07:00 UTC)
風向・風速南 3m/s
視程10km以上
天気現象
少しの雲 雲底高度 910m
気温24℃
湿度94%
気圧1014hPa
METARNSFA 110700Z 18005KT 9999 FEW030 24/23 Q1014 RMK NIL
過去の天気等 Google飛行場航空写真 Wunderground天気予報

過去48時間のMETAR

飛行場予報(TAF)
発表時間: 8/11 18:07 WSST (8/11 05:07 UTC)
予報対象時間: 11日19時 WSST ~ 12日19時 WSST
風向・風速南東 3m/s
視程10km以上
全天の4割程度の雲 雲底高度 610m
全天の4割程度の雲 雲底高度 3050m
12日14時 WSST ~ 12日19時 WSST に 確率 40% で一時的に
視程5000m
天気現象雷雨
少しの積乱雲 雲底高度 520m
TAF NSFA 110507Z 1106/1206 13006KT 9999 SCT020 SCT100
PROB40 TEMPO 1201/1206 5000 TSRA FEW017CB